sensor_id;sensor_type;location;lat;lon;timestamp;P1;durP1;ratioP1;P2;durP2;ratioP2
2622;SDS011;1321;48.690;9.022;2023-07-09T00:00:13;15.70;;;14.80;;
2622;SDS011;1321;48.690;9.022;2023-07-09T00:02:44;15.50;;;14.10;;
2622;SDS011;1321;48.690;9.022;2023-07-09T00:05:13;13.77;;;13.17;;
2622;SDS011;1321;48.690;9.022;2023-07-09T00:07:43;14.33;;;13.53;;
2622;SDS011;1321;48.690;9.022;2023-07-09T00:10:14;14.43;;;13.60;;
2622;SDS011;1321;48.690;9.022;2023-07-09T00:12:43;13.40;;;12.63;;
2622;SDS011;1321;48.690;9.022;2023-07-09T00:15:11;13.97;;;13.27;;
2622;SDS011;1321;48.690;9.022;2023-07-09T00:17:42;14.17;;;13.40;;
2622;SDS011;1321;48.690;9.022;2023-07-09T00:20:11;13.40;;;12.70;;
2622;SDS011;1321;48.690;9.022;2023-07-09T00:22:41;15.67;;;14.73;;
2622;SDS011;1321;48.690;9.022;2023-07-09T00:25:18;16.80;;;15.90;;
2622;SDS011;1321;48.690;9.022;2023-07-09T00:27:47;18.70;;;17.50;;
2622;SDS011;1321;48.690;9.022;2023-07-09T00:30:17;17.10;;;16.10;;
2622;SDS011;1321;48.690;9.022;2023-07-09T00:32:46;17.87;;;16.77;;
2622;SDS011;1321;48.690;9.022;2023-07-09T00:35:14;19.40;;;18.13;;
2622;SDS011;1321;48.690;9.022;2023-07-09T00:37:44;17.67;;;16.60;;
2622;SDS011;1321;48.690;9.022;2023-07-09T00:40:15;16.10;;;15.30;;
2622;SDS011;1321;48.690;9.022;2023-07-09T00:42:45;16.77;;;15.80;;
2622;SDS011;1321;48.690;9.022;2023-07-09T00:45:17;17.57;;;16.57;;
2622;SDS011;1321;48.690;9.022;2023-07-09T00:47:56;16.07;;;15.17;;
2622;SDS011;1321;48.690;9.022;2023-07-09T00:50:35;15.63;;;14.73;;
2622;SDS011;1321;48.690;9.022;2023-07-09T00:53:15;15.57;;;14.77;;
2622;SDS011;1321;48.690;9.022;2023-07-09T00:55:48;15.30;;;14.30;;
2622;SDS011;1321;48.690;9.022;2023-07-09T00:58:20;15.53;;;14.73;;
2622;SDS011;1321;48.690;9.022;2023-07-09T01:00:54;14.30;;;13.60;;
2622;SDS011;1321;48.690;9.022;2023-07-09T01:03:27;14.43;;;13.83;;
2622;SDS011;1321;48.690;9.022;2023-07-09T01:06:01;14.70;;;13.90;;
2622;SDS011;1321;48.690;9.022;2023-07-09T01:08:34;14.60;;;13.53;;
2622;SDS011;1321;48.690;9.022;2023-07-09T01:11:04;14.30;;;13.50;;
2622;SDS011;1321;48.690;9.022;2023-07-09T01:13:35;14.17;;;13.57;;
2622;SDS011;1321;48.690;9.022;2023-07-09T01:16:06;13.90;;;13.30;;
2622;SDS011;1321;48.690;9.022;2023-07-09T01:18:34;13.97;;;13.30;;
2622;SDS011;1321;48.690;9.022;2023-07-09T01:21:08;13.67;;;13.07;;
2622;SDS011;1321;48.690;9.022;2023-07-09T01:23:42;13.90;;;13.23;;
2622;SDS011;1321;48.690;9.022;2023-07-09T01:26:10;13.70;;;13.00;;
2622;SDS011;1321;48.690;9.022;2023-07-09T01:28:40;13.30;;;12.70;;
2622;SDS011;1321;48.690;9.022;2023-07-09T01:31:09;14.40;;;13.50;;
2622;SDS011;1321;48.690;9.022;2023-07-09T01:33:38;13.97;;;13.17;;
2622;SDS011;1321;48.690;9.022;2023-07-09T01:36:09;13.33;;;12.70;;
2622;SDS011;1321;48.690;9.022;2023-07-09T01:38:39;14.17;;;13.27;;
2622;SDS011;1321;48.690;9.022;2023-07-09T01:41:08;13.77;;;13.07;;
2622;SDS011;1321;48.690;9.022;2023-07-09T01:43:40;14.23;;;13.20;;
2622;SDS011;1321;48.690;9.022;2023-07-09T01:46:09;13.33;;;12.70;;
2622;SDS011;1321;48.690;9.022;2023-07-09T01:48:39;13.77;;;13.13;;
2622;SDS011;1321;48.690;9.022;2023-07-09T01:51:10;13.33;;;12.73;;
2622;SDS011;1321;48.690;9.022;2023-07-09T01:53:42;13.43;;;12.73;;
2622;SDS011;1321;48.690;9.022;2023-07-09T01:56:11;13.90;;;13.10;;
2622;SDS011;1321;48.690;9.022;2023-07-09T01:58:39;12.90;;;12.40;;
2622;SDS011;1321;48.690;9.022;2023-07-09T02:01:08;14.33;;;13.50;;
2622;SDS011;1321;48.690;9.022;2023-07-09T02:03:37;14.57;;;13.77;;
2622;SDS011;1321;48.690;9.022;2023-07-09T02:06:05;13.40;;;12.70;;
2622;SDS011;1321;48.690;9.022;2023-07-09T02:08:37;13.50;;;12.90;;
2622;SDS011;1321;48.690;9.022;2023-07-09T02:11:06;13.60;;;13.00;;
2622;SDS011;1321;48.690;9.022;2023-07-09T02:13:34;13.50;;;12.60;;
2622;SDS011;1321;48.690;9.022;2023-07-09T02:16:02;13.50;;;12.90;;
2622;SDS011;1321;48.690;9.022;2023-07-09T02:18:30;14.20;;;13.40;;
2622;SDS011;1321;48.690;9.022;2023-07-09T02:20:59;13.43;;;12.80;;
2622;SDS011;1321;48.690;9.022;2023-07-09T02:23:27;13.70;;;12.90;;
2622;SDS011;1321;48.690;9.022;2023-07-09T02:25:57;13.47;;;12.97;;
2622;SDS011;1321;48.690;9.022;2023-07-09T02:28:25;14.27;;;13.23;;
2622;SDS011;1321;48.690;9.022;2023-07-09T02:30:53;13.80;;;13.00;;
2622;SDS011;1321;48.690;9.022;2023-07-09T02:33:21;13.90;;;13.20;;
2622;SDS011;1321;48.690;9.022;2023-07-09T02:35:50;13.80;;;13.20;;
2622;SDS011;1321;48.690;9.022;2023-07-09T02:38:18;14.53;;;13.90;;
2622;SDS011;1321;48.690;9.022;2023-07-09T02:40:46;13.50;;;12.90;;
2622;SDS011;1321;48.690;9.022;2023-07-09T02:43:15;13.60;;;13.00;;
2622;SDS011;1321;48.690;9.022;2023-07-09T02:45:43;13.33;;;12.83;;
2622;SDS011;1321;48.690;9.022;2023-07-09T02:48:11;13.23;;;12.70;;
2622;SDS011;1321;48.690;9.022;2023-07-09T02:50:39;13.47;;;12.67;;
2622;SDS011;1321;48.690;9.022;2023-07-09T02:53:07;14.30;;;13.60;;
2622;SDS011;1321;48.690;9.022;2023-07-09T02:55:36;13.80;;;13.20;;
2622;SDS011;1321;48.690;9.022;2023-07-09T02:58:04;13.80;;;13.03;;
2622;SDS011;1321;48.690;9.022;2023-07-09T03:00:33;14.20;;;13.30;;
2622;SDS011;1321;48.690;9.022;2023-07-09T03:03:01;14.90;;;13.93;;
2622;SDS011;1321;48.690;9.022;2023-07-09T03:05:29;14.20;;;13.50;;
2622;SDS011;1321;48.690;9.022;2023-07-09T03:07:58;13.67;;;13.00;;
2622;SDS011;1321;48.690;9.022;2023-07-09T03:10:27;15.10;;;14.13;;
2622;SDS011;1321;48.690;9.022;2023-07-09T03:12:56;13.63;;;12.93;;
2622;SDS011;1321;48.690;9.022;2023-07-09T03:15:24;13.47;;;12.87;;
2622;SDS011;1321;48.690;9.022;2023-07-09T03:17:53;14.73;;;13.90;;
2622;SDS011;1321;48.690;9.022;2023-07-09T03:20:21;13.90;;;13.20;;
2622;SDS011;1321;48.690;9.022;2023-07-09T03:22:49;13.53;;;12.83;;
2622;SDS011;1321;48.690;9.022;2023-07-09T03:25:18;14.40;;;13.63;;
2622;SDS011;1321;48.690;9.022;2023-07-09T03:27:46;13.83;;;13.23;;
2622;SDS011;1321;48.690;9.022;2023-07-09T03:30:15;13.83;;;13.20;;
2622;SDS011;1321;48.690;9.022;2023-07-09T03:32:43;13.80;;;13.10;;
2622;SDS011;1321;48.690;9.022;2023-07-09T03:35:13;14.03;;;13.40;;
2622;SDS011;1321;48.690;9.022;2023-07-09T03:37:41;13.47;;;12.77;;
2622;SDS011;1321;48.690;9.022;2023-07-09T03:40:10;14.17;;;13.47;;
2622;SDS011;1321;48.690;9.022;2023-07-09T03:42:38;13.77;;;13.17;;
2622;SDS011;1321;48.690;9.022;2023-07-09T03:45:06;14.73;;;13.70;;
2622;SDS011;1321;48.690;9.022;2023-07-09T03:47:34;13.50;;;12.90;;
2622;SDS011;1321;48.690;9.022;2023-07-09T03:50:03;15.40;;;14.57;;
2622;SDS011;1321;48.690;9.022;2023-07-09T03:52:34;14.93;;;14.20;;
2622;SDS011;1321;48.690;9.022;2023-07-09T03:55:02;15.07;;;14.27;;
2622;SDS011;1321;48.690;9.022;2023-07-09T03:57:31;14.63;;;13.83;;
2622;SDS011;1321;48.690;9.022;2023-07-09T03:59:59;14.77;;;14.03;;
2622;SDS011;1321;48.690;9.022;2023-07-09T04:02:27;14.13;;;13.40;;
2622;SDS011;1321;48.690;9.022;2023-07-09T04:04:56;14.17;;;13.57;;
2622;SDS011;1321;48.690;9.022;2023-07-09T04:07:24;14.70;;;14.00;;
2622;SDS011;1321;48.690;9.022;2023-07-09T04:09:53;13.00;;;12.60;;
2622;SDS011;1321;48.690;9.022;2023-07-09T04:12:21;14.70;;;13.90;;
2622;SDS011;1321;48.690;9.022;2023-07-09T04:14:49;15.23;;;14.40;;
2622;SDS011;1321;48.690;9.022;2023-07-09T04:17:17;14.47;;;13.77;;
2622;SDS011;1321;48.690;9.022;2023-07-09T04:19:45;13.97;;;13.33;;
2622;SDS011;1321;48.690;9.022;2023-07-09T04:22:14;14.67;;;14.03;;
2622;SDS011;1321;48.690;9.022;2023-07-09T04:24:42;14.07;;;13.47;;
2622;SDS011;1321;48.690;9.022;2023-07-09T04:27:11;14.97;;;14.03;;
2622;SDS011;1321;48.690;9.022;2023-07-09T04:29:40;14.50;;;13.53;;
2622;SDS011;1321;48.690;9.022;2023-07-09T04:32:12;15.17;;;14.37;;
2622;SDS011;1321;48.690;9.022;2023-07-09T04:34:41;14.30;;;13.60;;
2622;SDS011;1321;48.690;9.022;2023-07-09T04:37:10;14.37;;;13.70;;
2622;SDS011;1321;48.690;9.022;2023-07-09T04:39:39;15.07;;;14.23;;
2622;SDS011;1321;48.690;9.022;2023-07-09T04:42:08;14.37;;;13.77;;
2622;SDS011;1321;48.690;9.022;2023-07-09T04:44:39;13.90;;;13.20;;
2622;SDS011;1321;48.690;9.022;2023-07-09T04:47:08;14.70;;;13.90;;
2622;SDS011;1321;48.690;9.022;2023-07-09T04:49:38;15.03;;;14.03;;
2622;SDS011;1321;48.690;9.022;2023-07-09T04:52:07;14.67;;;13.97;;
2622;SDS011;1321;48.690;9.022;2023-07-09T04:57:09;15.63;;;14.63;;
2622;SDS011;1321;48.690;9.022;2023-07-09T04:59:39;14.40;;;13.63;;
2622;SDS011;1321;48.690;9.022;2023-07-09T05:02:08;14.50;;;13.70;;
2622;SDS011;1321;48.690;9.022;2023-07-09T05:04:36;14.47;;;13.77;;
2622;SDS011;1321;48.690;9.022;2023-07-09T05:07:04;14.83;;;14.10;;
2622;SDS011;1321;48.690;9.022;2023-07-09T05:09:33;15.63;;;14.83;;
2622;SDS011;1321;48.690;9.022;2023-07-09T05:12:01;14.87;;;14.17;;
2622;SDS011;1321;48.690;9.022;2023-07-09T05:14:30;15.30;;;14.50;;
2622;SDS011;1321;48.690;9.022;2023-07-09T05:16:58;14.40;;;13.73;;
2622;SDS011;1321;48.690;9.022;2023-07-09T05:19:26;14.70;;;14.10;;
2622;SDS011;1321;48.690;9.022;2023-07-09T05:21:54;15.10;;;14.40;;
2622;SDS011;1321;48.690;9.022;2023-07-09T05:24:23;15.20;;;14.30;;
2622;SDS011;1321;48.690;9.022;2023-07-09T05:26:54;15.10;;;14.40;;
2622;SDS011;1321;48.690;9.022;2023-07-09T05:29:22;14.80;;;14.10;;
2622;SDS011;1321;48.690;9.022;2023-07-09T05:31:52;15.00;;;14.20;;
2622;SDS011;1321;48.690;9.022;2023-07-09T05:34:20;15.20;;;14.40;;
2622;SDS011;1321;48.690;9.022;2023-07-09T05:36:48;14.60;;;13.87;;
2622;SDS011;1321;48.690;9.022;2023-07-09T05:39:16;14.80;;;14.07;;
2622;SDS011;1321;48.690;9.022;2023-07-09T05:41:45;15.90;;;14.90;;
2622;SDS011;1321;48.690;9.022;2023-07-09T05:44:13;14.53;;;13.83;;
2622;SDS011;1321;48.690;9.022;2023-07-09T05:46:41;15.90;;;14.87;;
2622;SDS011;1321;48.690;9.022;2023-07-09T05:49:11;14.30;;;13.60;;
2622;SDS011;1321;48.690;9.022;2023-07-09T05:51:40;14.83;;;14.10;;
2622;SDS011;1321;48.690;9.022;2023-07-09T05:54:08;14.93;;;14.23;;
2622;SDS011;1321;48.690;9.022;2023-07-09T05:56:37;14.57;;;13.90;;
2622;SDS011;1321;48.690;9.022;2023-07-09T05:59:05;14.97;;;14.27;;
2622;SDS011;1321;48.690;9.022;2023-07-09T06:01:34;14.10;;;13.60;;
2622;SDS011;1321;48.690;9.022;2023-07-09T06:04:02;16.57;;;15.57;;
2622;SDS011;1321;48.690;9.022;2023-07-09T06:06:33;15.80;;;15.00;;
2622;SDS011;1321;48.690;9.022;2023-07-09T06:09:01;15.40;;;14.70;;
2622;SDS011;1321;48.690;9.022;2023-07-09T06:11:30;16.50;;;15.40;;
2622;SDS011;1321;48.690;9.022;2023-07-09T06:13:58;15.47;;;14.67;;
2622;SDS011;1321;48.690;9.022;2023-07-09T06:16:26;15.30;;;14.50;;
2622;SDS011;1321;48.690;9.022;2023-07-09T06:18:55;15.00;;;14.30;;
2622;SDS011;1321;48.690;9.022;2023-07-09T06:21:23;14.67;;;14.07;;
2622;SDS011;1321;48.690;9.022;2023-07-09T06:23:52;14.90;;;14.23;;
2622;SDS011;1321;48.690;9.022;2023-07-09T06:26:20;15.97;;;15.17;;
2622;SDS011;1321;48.690;9.022;2023-07-09T06:28:49;17.20;;;16.10;;
2622;SDS011;1321;48.690;9.022;2023-07-09T06:31:17;15.40;;;14.60;;
2622;SDS011;1321;48.690;9.022;2023-07-09T06:33:47;15.17;;;14.43;;
2622;SDS011;1321;48.690;9.022;2023-07-09T06:36:16;15.60;;;14.90;;
2622;SDS011;1321;48.690;9.022;2023-07-09T06:38:45;15.20;;;14.47;;
2622;SDS011;1321;48.690;9.022;2023-07-09T06:41:15;15.00;;;14.40;;
2622;SDS011;1321;48.690;9.022;2023-07-09T06:43:43;16.50;;;15.60;;
2622;SDS011;1321;48.690;9.022;2023-07-09T06:46:13;16.20;;;15.10;;
2622;SDS011;1321;48.690;9.022;2023-07-09T06:48:41;15.83;;;15.13;;
2622;SDS011;1321;48.690;9.022;2023-07-09T06:51:10;15.87;;;15.07;;
2622;SDS011;1321;48.690;9.022;2023-07-09T06:53:38;15.77;;;15.07;;
2622;SDS011;1321;48.690;9.022;2023-07-09T06:56:07;15.70;;;14.60;;
2622;SDS011;1321;48.690;9.022;2023-07-09T06:58:37;15.70;;;15.00;;
2622;SDS011;1321;48.690;9.022;2023-07-09T07:01:05;16.23;;;15.53;;
2622;SDS011;1321;48.690;9.022;2023-07-09T07:03:33;16.60;;;15.57;;
2622;SDS011;1321;48.690;9.022;2023-07-09T07:09:52;16.57;;;15.50;;
2622;SDS011;1321;48.690;9.022;2023-07-09T07:12:30;15.60;;;14.97;;
2622;SDS011;1321;48.690;9.022;2023-07-09T07:25:31;16.10;;;15.40;;
2622;SDS011;1321;48.690;9.022;2023-07-09T07:31:31;16.37;;;15.67;;
2622;SDS011;1321;48.690;9.022;2023-07-09T07:43:04;14.93;;;14.23;;
2622;SDS011;1321;48.690;9.022;2023-07-09T07:45:32;15.03;;;14.10;;
2622;SDS011;1321;48.690;9.022;2023-07-09T07:48:01;15.33;;;14.63;;
2622;SDS011;1321;48.690;9.022;2023-07-09T07:50:29;14.93;;;14.23;;
2622;SDS011;1321;48.690;9.022;2023-07-09T07:52:57;14.10;;;13.60;;
2622;SDS011;1321;48.690;9.022;2023-07-09T07:55:25;16.37;;;15.13;;
2622;SDS011;1321;48.690;9.022;2023-07-09T07:57:53;15.70;;;14.90;;
2622;SDS011;1321;48.690;9.022;2023-07-09T08:00:38;16.27;;;15.50;;
2622;SDS011;1321;48.690;9.022;2023-07-09T08:08:04;14.93;;;14.33;;
2622;SDS011;1321;48.690;9.022;2023-07-09T08:10:43;15.10;;;14.50;;
2622;SDS011;1321;48.690;9.022;2023-07-09T08:16:35;15.30;;;14.60;;
2622;SDS011;1321;48.690;9.022;2023-07-09T08:20:06;14.73;;;14.13;;
2622;SDS011;1321;48.690;9.022;2023-07-09T08:22:35;14.83;;;13.93;;
2622;SDS011;1321;48.690;9.022;2023-07-09T08:35:01;15.40;;;14.67;;
2622;SDS011;1321;48.690;9.022;2023-07-09T08:37:41;13.83;;;13.37;;
2622;SDS011;1321;48.690;9.022;2023-07-09T08:43:56;14.90;;;14.30;;
2622;SDS011;1321;48.690;9.022;2023-07-09T08:50:35;14.77;;;13.93;;
2622;SDS011;1321;48.690;9.022;2023-07-09T08:57:57;14.10;;;13.60;;
2622;SDS011;1321;48.690;9.022;2023-07-09T09:04:59;15.87;;;14.77;;
2622;SDS011;1321;48.690;9.022;2023-07-09T09:07:41;14.73;;;14.03;;
2622;SDS011;1321;48.690;9.022;2023-07-09T09:13:11;14.70;;;14.00;;
2622;SDS011;1321;48.690;9.022;2023-07-09T09:16:02;15.50;;;14.37;;
2622;SDS011;1321;48.690;9.022;2023-07-09T09:18:49;15.07;;;14.30;;
2622;SDS011;1321;48.690;9.022;2023-07-09T09:21:31;16.43;;;15.40;;
2622;SDS011;1321;48.690;9.022;2023-07-09T09:24:35;14.63;;;13.83;;
2622;SDS011;1321;48.690;9.022;2023-07-09T09:28:22;14.90;;;14.20;;
2622;SDS011;1321;48.690;9.022;2023-07-09T09:31:08;14.57;;;14.03;;
2622;SDS011;1321;48.690;9.022;2023-07-09T09:38:16;14.43;;;13.77;;
2622;SDS011;1321;48.690;9.022;2023-07-09T09:52:51;13.87;;;13.37;;
2622;SDS011;1321;48.690;9.022;2023-07-09T09:55:27;14.30;;;13.70;;
2622;SDS011;1321;48.690;9.022;2023-07-09T09:57:59;14.97;;;14.27;;
2622;SDS011;1321;48.690;9.022;2023-07-09T10:00:30;13.83;;;13.23;;
2622;SDS011;1321;48.690;9.022;2023-07-09T10:03:06;14.27;;;13.57;;
2622;SDS011;1321;48.690;9.022;2023-07-09T10:05:57;13.33;;;12.73;;
2622;SDS011;1321;48.690;9.022;2023-07-09T10:08:54;13.10;;;12.20;;
2622;SDS011;1321;48.690;9.022;2023-07-09T10:11:34;13.00;;;12.40;;
2622;SDS011;1321;48.690;9.022;2023-07-09T10:14:27;13.73;;;13.13;;
2622;SDS011;1321;48.690;9.022;2023-07-09T10:17:07;13.87;;;13.27;;
2622;SDS011;1321;48.690;9.022;2023-07-09T10:19:49;13.47;;;12.70;;
2622;SDS011;1321;48.690;9.022;2023-07-09T10:22:33;13.13;;;12.40;;
2622;SDS011;1321;48.690;9.022;2023-07-09T10:25:45;14.07;;;13.37;;
2622;SDS011;1321;48.690;9.022;2023-07-09T10:28:33;13.40;;;12.80;;
2622;SDS011;1321;48.690;9.022;2023-07-09T10:31:26;12.60;;;12.17;;
2622;SDS011;1321;48.690;9.022;2023-07-09T10:34:26;14.00;;;12.33;;
2622;SDS011;1321;48.690;9.022;2023-07-09T10:37:17;13.03;;;12.43;;
2622;SDS011;1321;48.690;9.022;2023-07-09T10:40:17;12.40;;;11.80;;
2622;SDS011;1321;48.690;9.022;2023-07-09T10:42:58;12.70;;;12.10;;
2622;SDS011;1321;48.690;9.022;2023-07-09T10:45:30;12.50;;;11.90;;
2622;SDS011;1321;48.690;9.022;2023-07-09T10:48:31;12.37;;;11.77;;
2622;SDS011;1321;48.690;9.022;2023-07-09T10:51:15;11.90;;;11.00;;
2622;SDS011;1321;48.690;9.022;2023-07-09T10:54:00;12.73;;;11.83;;
2622;SDS011;1321;48.690;9.022;2023-07-09T10:56:48;13.17;;;12.47;;
2622;SDS011;1321;48.690;9.022;2023-07-09T11:00:16;12.50;;;11.70;;
2622;SDS011;1321;48.690;9.022;2023-07-09T11:02:58;11.07;;;10.37;;
2622;SDS011;1321;48.690;9.022;2023-07-09T11:05:31;10.60;;;9.90;;
2622;SDS011;1321;48.690;9.022;2023-07-09T11:08:39;10.97;;;10.43;;
2622;SDS011;1321;48.690;9.022;2023-07-09T11:11:24;10.40;;;9.60;;
2622;SDS011;1321;48.690;9.022;2023-07-09T11:14:04;10.43;;;10.00;;
2622;SDS011;1321;48.690;9.022;2023-07-09T11:16:51;10.90;;;10.40;;
2622;SDS011;1321;48.690;9.022;2023-07-09T11:19:27;10.57;;;10.07;;
2622;SDS011;1321;48.690;9.022;2023-07-09T11:22:02;10.47;;;9.97;;
2622;SDS011;1321;48.690;9.022;2023-07-09T11:24:51;10.53;;;9.93;;
2622;SDS011;1321;48.690;9.022;2023-07-09T11:27:48;10.23;;;9.73;;
2622;SDS011;1321;48.690;9.022;2023-07-09T11:30:26;9.47;;;8.90;;
2622;SDS011;1321;48.690;9.022;2023-07-09T11:33:19;11.03;;;10.33;;
2622;SDS011;1321;48.690;9.022;2023-07-09T11:36:22;10.37;;;9.77;;
2622;SDS011;1321;48.690;9.022;2023-07-09T11:39:16;10.20;;;9.70;;
2622;SDS011;1321;48.690;9.022;2023-07-09T11:42:32;10.93;;;10.33;;
2622;SDS011;1321;48.690;9.022;2023-07-09T11:48:57;10.47;;;9.97;;
2622;SDS011;1321;48.690;9.022;2023-07-09T11:51:38;10.90;;;10.40;;
2622;SDS011;1321;48.690;9.022;2023-07-09T11:54:17;10.27;;;9.57;;
2622;SDS011;1321;48.690;9.022;2023-07-09T11:56:53;11.10;;;10.50;;
2622;SDS011;1321;48.690;9.022;2023-07-09T11:59:59;10.77;;;9.97;;
2622;SDS011;1321;48.690;9.022;2023-07-09T12:06:02;10.60;;;10.07;;
2622;SDS011;1321;48.690;9.022;2023-07-09T12:08:35;10.27;;;9.67;;
2622;SDS011;1321;48.690;9.022;2023-07-09T12:11:18;10.60;;;10.03;;
2622;SDS011;1321;48.690;9.022;2023-07-09T12:13:50;10.27;;;9.53;;
2622;SDS011;1321;48.690;9.022;2023-07-09T12:16:39;9.33;;;8.83;;
2622;SDS011;1321;48.690;9.022;2023-07-09T12:19:30;9.83;;;9.10;;
2622;SDS011;1321;48.690;9.022;2023-07-09T12:30:29;9.50;;;8.80;;
2622;SDS011;1321;48.690;9.022;2023-07-09T12:31:35;10.70;;;10.10;;
2622;SDS011;1321;48.690;9.022;2023-07-09T12:34:10;9.83;;;9.33;;
2622;SDS011;1321;48.690;9.022;2023-07-09T12:48:20;9.37;;;8.87;;
2622;SDS011;1321;48.690;9.022;2023-07-09T12:51:08;10.13;;;9.53;;
2622;SDS011;1321;48.690;9.022;2023-07-09T12:53:36;9.93;;;9.33;;
2622;SDS011;1321;48.690;9.022;2023-07-09T12:56:10;9.73;;;9.23;;
2622;SDS011;1321;48.690;9.022;2023-07-09T13:02:23;9.03;;;8.30;;
2622;SDS011;1321;48.690;9.022;2023-07-09T13:07:58;9.00;;;8.60;;
2622;SDS011;1321;48.690;9.022;2023-07-09T13:10:29;10.70;;;9.80;;
2622;SDS011;1321;48.690;9.022;2023-07-09T13:13:21;9.87;;;9.37;;
2622;SDS011;1321;48.690;9.022;2023-07-09T13:21:48;9.23;;;8.83;;
2622;SDS011;1321;48.690;9.022;2023-07-09T13:24:29;9.67;;;9.07;;
2622;SDS011;1321;48.690;9.022;2023-07-09T13:27:28;11.00;;;10.30;;
2622;SDS011;1321;48.690;9.022;2023-07-09T13:29:56;9.50;;;8.90;;
2622;SDS011;1321;48.690;9.022;2023-07-09T13:32:24;8.70;;;8.20;;
2622;SDS011;1321;48.690;9.022;2023-07-09T13:34:54;9.17;;;8.57;;
2622;SDS011;1321;48.690;9.022;2023-07-09T13:37:23;9.10;;;8.60;;
2622;SDS011;1321;48.690;9.022;2023-07-09T13:48:04;8.47;;;7.97;;
2622;SDS011;1321;48.690;9.022;2023-07-09T13:50:40;9.23;;;8.73;;
2622;SDS011;1321;48.690;9.022;2023-07-09T13:53:19;8.80;;;8.40;;
2622;SDS011;1321;48.690;9.022;2023-07-09T13:55:52;8.93;;;8.47;;
2622;SDS011;1321;48.690;9.022;2023-07-09T13:58:22;9.30;;;8.70;;
2622;SDS011;1321;48.690;9.022;2023-07-09T14:01:16;8.90;;;8.30;;
2622;SDS011;1321;48.690;9.022;2023-07-09T14:03:55;9.00;;;8.50;;
2622;SDS011;1321;48.690;9.022;2023-07-09T14:07:30;9.73;;;9.13;;
2622;SDS011;1321;48.690;9.022;2023-07-09T14:12:47;10.00;;;9.33;;
2622;SDS011;1321;48.690;9.022;2023-07-09T14:15:16;9.10;;;8.53;;
2622;SDS011;1321;48.690;9.022;2023-07-09T14:17:46;7.60;;;7.23;;
2622;SDS011;1321;48.690;9.022;2023-07-09T14:20:44;7.47;;;7.00;;
2622;SDS011;1321;48.690;9.022;2023-07-09T14:23:21;8.27;;;7.57;;
2622;SDS011;1321;48.690;9.022;2023-07-09T14:25:54;7.90;;;7.60;;
2622;SDS011;1321;48.690;9.022;2023-07-09T14:28:22;8.33;;;7.70;;
2622;SDS011;1321;48.690;9.022;2023-07-09T14:30:53;7.13;;;6.63;;
2622;SDS011;1321;48.690;9.022;2023-07-09T14:33:21;8.20;;;7.60;;
2622;SDS011;1321;48.690;9.022;2023-07-09T14:35:52;7.93;;;7.43;;
2622;SDS011;1321;48.690;9.022;2023-07-09T14:38:30;7.97;;;7.67;;
2622;SDS011;1321;48.690;9.022;2023-07-09T14:42:01;8.27;;;7.77;;
2622;SDS011;1321;48.690;9.022;2023-07-09T14:44:42;8.97;;;8.47;;
2622;SDS011;1321;48.690;9.022;2023-07-09T14:47:15;8.83;;;8.20;;
2622;SDS011;1321;48.690;9.022;2023-07-09T14:50:06;7.37;;;6.97;;
2622;SDS011;1321;48.690;9.022;2023-07-09T14:52:41;8.70;;;8.10;;
2622;SDS011;1321;48.690;9.022;2023-07-09T14:55:31;8.10;;;7.60;;
2622;SDS011;1321;48.690;9.022;2023-07-09T15:01:49;8.00;;;7.40;;
2622;SDS011;1321;48.690;9.022;2023-07-09T15:08:09;7.50;;;7.17;;
2622;SDS011;1321;48.690;9.022;2023-07-09T15:13:35;7.80;;;6.70;;
2622;SDS011;1321;48.690;9.022;2023-07-09T15:16:41;6.53;;;6.13;;
2622;SDS011;1321;48.690;9.022;2023-07-09T15:19:47;6.97;;;6.57;;
2622;SDS011;1321;48.690;9.022;2023-07-09T15:22:32;6.93;;;6.57;;
2622;SDS011;1321;48.690;9.022;2023-07-09T15:35:33;7.50;;;7.10;;
2622;SDS011;1321;48.690;9.022;2023-07-09T15:38:05;7.33;;;6.90;;
2622;SDS011;1321;48.690;9.022;2023-07-09T15:43:50;8.40;;;7.90;;
2622;SDS011;1321;48.690;9.022;2023-07-09T15:46:21;7.50;;;7.07;;
2622;SDS011;1321;48.690;9.022;2023-07-09T15:51:50;7.47;;;6.77;;
2622;SDS011;1321;48.690;9.022;2023-07-09T15:54:19;7.00;;;6.57;;
2622;SDS011;1321;48.690;9.022;2023-07-09T15:56:51;6.93;;;6.43;;
2622;SDS011;1321;48.690;9.022;2023-07-09T15:59:29;7.73;;;7.33;;
2622;SDS011;1321;48.690;9.022;2023-07-09T16:05:14;7.27;;;6.70;;
2622;SDS011;1321;48.690;9.022;2023-07-09T16:08:49;6.73;;;6.43;;
2622;SDS011;1321;48.690;9.022;2023-07-09T16:11:45;6.57;;;6.27;;
2622;SDS011;1321;48.690;9.022;2023-07-09T16:14:53;7.67;;;7.27;;
2622;SDS011;1321;48.690;9.022;2023-07-09T16:17:35;7.63;;;7.13;;
2622;SDS011;1321;48.690;9.022;2023-07-09T16:20:17;8.03;;;7.53;;
2622;SDS011;1321;48.690;9.022;2023-07-09T16:22:53;7.57;;;6.93;;
2622;SDS011;1321;48.690;9.022;2023-07-09T16:25:26;7.20;;;6.90;;
2622;SDS011;1321;48.690;9.022;2023-07-09T16:28:20;7.70;;;7.30;;
2622;SDS011;1321;48.690;9.022;2023-07-09T16:30:56;7.20;;;6.80;;
2622;SDS011;1321;48.690;9.022;2023-07-09T16:33:27;7.03;;;6.60;;
2622;SDS011;1321;48.690;9.022;2023-07-09T16:35:56;7.43;;;7.03;;
2622;SDS011;1321;48.690;9.022;2023-07-09T16:38:24;7.47;;;7.17;;
2622;SDS011;1321;48.690;9.022;2023-07-09T16:40:52;7.90;;;7.40;;
2622;SDS011;1321;48.690;9.022;2023-07-09T16:43:21;9.20;;;8.40;;
2622;SDS011;1321;48.690;9.022;2023-07-09T16:45:50;8.23;;;7.73;;
2622;SDS011;1321;48.690;9.022;2023-07-09T16:48:18;8.17;;;7.63;;
2622;SDS011;1321;48.690;9.022;2023-07-09T16:50:50;8.87;;;8.10;;
2622;SDS011;1321;48.690;9.022;2023-07-09T16:53:22;8.43;;;7.70;;
2622;SDS011;1321;48.690;9.022;2023-07-09T16:55:52;6.93;;;6.63;;
2622;SDS011;1321;48.690;9.022;2023-07-09T16:58:24;6.67;;;6.37;;
2622;SDS011;1321;48.690;9.022;2023-07-09T17:00:58;6.70;;;6.40;;
2622;SDS011;1321;48.690;9.022;2023-07-09T17:03:27;8.03;;;7.10;;
2622;SDS011;1321;48.690;9.022;2023-07-09T17:05:57;7.93;;;7.37;;
2622;SDS011;1321;48.690;9.022;2023-07-09T17:08:25;7.87;;;7.43;;
2622;SDS011;1321;48.690;9.022;2023-07-09T17:11:02;7.63;;;7.03;;
2622;SDS011;1321;48.690;9.022;2023-07-09T17:13:31;6.80;;;6.33;;
2622;SDS011;1321;48.690;9.022;2023-07-09T17:19:20;7.27;;;6.80;;
2622;SDS011;1321;48.690;9.022;2023-07-09T17:21:50;7.60;;;7.30;;
2622;SDS011;1321;48.690;9.022;2023-07-09T17:24:21;6.67;;;6.37;;
2622;SDS011;1321;48.690;9.022;2023-07-09T17:26:59;7.87;;;7.40;;
2622;SDS011;1321;48.690;9.022;2023-07-09T17:29:27;8.10;;;7.60;;
2622;SDS011;1321;48.690;9.022;2023-07-09T17:32:13;7.30;;;6.70;;
2622;SDS011;1321;48.690;9.022;2023-07-09T17:34:43;6.90;;;6.57;;
2622;SDS011;1321;48.690;9.022;2023-07-09T17:37:22;6.93;;;6.63;;
2622;SDS011;1321;48.690;9.022;2023-07-09T17:40:18;8.20;;;7.67;;
2622;SDS011;1321;48.690;9.022;2023-07-09T17:43:06;9.50;;;8.80;;
2622;SDS011;1321;48.690;9.022;2023-07-09T17:45:50;7.87;;;7.43;;
2622;SDS011;1321;48.690;9.022;2023-07-09T17:49:11;7.80;;;7.20;;
2622;SDS011;1321;48.690;9.022;2023-07-09T18:00:04;10.00;;;9.20;;
2622;SDS011;1321;48.690;9.022;2023-07-09T18:02:35;8.27;;;7.60;;
2622;SDS011;1321;48.690;9.022;2023-07-09T18:05:13;8.30;;;7.67;;
2622;SDS011;1321;48.690;9.022;2023-07-09T18:07:51;8.10;;;7.60;;
2622;SDS011;1321;48.690;9.022;2023-07-09T18:10:21;8.97;;;8.47;;
2622;SDS011;1321;48.690;9.022;2023-07-09T18:12:55;8.63;;;8.13;;
2622;SDS011;1321;48.690;9.022;2023-07-09T18:15:29;8.67;;;8.17;;
2622;SDS011;1321;48.690;9.022;2023-07-09T18:17:59;8.10;;;7.63;;
2622;SDS011;1321;48.690;9.022;2023-07-09T18:20:29;8.33;;;7.93;;
2622;SDS011;1321;48.690;9.022;2023-07-09T18:23:02;8.77;;;8.27;;
2622;SDS011;1321;48.690;9.022;2023-07-09T18:25:31;9.00;;;8.40;;
2622;SDS011;1321;48.690;9.022;2023-07-09T18:28:02;9.57;;;8.97;;
2622;SDS011;1321;48.690;9.022;2023-07-09T18:30:35;10.60;;;9.80;;
2622;SDS011;1321;48.690;9.022;2023-07-09T18:33:10;9.30;;;8.70;;
2622;SDS011;1321;48.690;9.022;2023-07-09T18:35:39;9.90;;;9.30;;
2622;SDS011;1321;48.690;9.022;2023-07-09T18:41:31;11.53;;;10.77;;